Time;durP1;ratioP1;P1;durP2;ratioP2;P2;SDS_P1;SDS_P2;PMS_P1;PMS_P2;Temp;Humidity;BMP_temperature;BMP_pressure;BME280_temperature;BME280_humidity;BME280_pressure;Samples;Min_cycle;Max_cycle;Signal;HPM_P1;HPM_P2
2022/04/17 00:00:06;;;;;;;5.85;1.30;;;12.20;72.70;;;;;;5012929;28;20049;-70
2022/04/17 00:03:10;;;;;;;2.40;1.17;;;12.10;73.00;;;;;;5012834;28;20061;-70
2022/04/17 00:06:14;;;;;;;5.63;1.50;;;11.90;73.20;;;;;;5012252;28;20041;-70
2022/04/17 00:09:19;;;;;;;3.95;0.90;;;11.80;74.40;;;;;;5012627;28;20064;-71
2022/04/17 00:12:23;;;;;;;5.47;1.27;;;11.70;74.00;;;;;;5012645;28;20053;-71
2022/04/17 00:15:28;;;;;;;2.30;1.00;;;11.70;73.30;;;;;;5012389;28;20504;-71
2022/04/17 00:18:32;;;;;;;3.13;1.25;;;11.80;73.40;;;;;;5012469;28;20057;-71
2022/04/17 00:21:36;;;;;;;16.48;3.03;;;11.70;74.30;;;;;;5012403;28;20053;-70
2022/04/17 00:24:41;;;;;;;5.60;1.58;;;11.70;73.60;;;;;;5012341;28;20500;-70
2022/04/17 00:27:45;;;;;;;3.72;1.10;;;11.70;74.40;;;;;;5011956;28;20061;-69
2022/04/17 00:30:50;;;;;;;6.22;1.48;;;11.60;74.00;;;;;;5012712;28;20056;-70
2022/04/17 00:33:53;;;;;;;3.63;1.30;;;11.60;73.90;;;;;;5012346;28;20048;-69
2022/04/17 00:36:59;;;;;;;4.70;1.40;;;11.60;75.00;;;;;;5012593;28;20048;-71
2022/04/17 00:40:07;;;;;;;3.30;1.30;;;11.60;74.90;;;;;;5012206;28;20052;-71
2022/04/17 00:43:32;;;;;;;5.32;1.60;;;11.50;76.40;;;;;;5012136;28;20037;-71
2022/04/17 00:46:37;;;;;;;4.90;1.50;;;11.40;75.80;;;;;;5011729;28;20041;-70
2022/04/17 00:49:43;;;;;;;8.07;1.67;;;11.40;77.60;;;;;;5011768;28;20053;-70
2022/04/17 00:52:47;;;;;;;6.65;1.70;;;11.30;77.40;;;;;;5011819;28;20086;-71
2022/04/17 00:55:52;;;;;;;8.82;1.95;;;11.20;78.60;;;;;;5012418;28;20041;-71
2022/04/17 00:58:57;;;;;;;4.35;1.48;;;11.20;79.20;;;;;;5011678;28;20044;-70
2022/04/17 01:02:00;;;;;;;5.97;1.58;;;11.20;78.80;;;;;;5012267;28;20040;-71
2022/04/17 01:05:05;;;;;;;4.50;1.50;;;11.10;79.80;;;;;;5011809;28;20053;-71
2022/04/17 01:08:10;;;;;;;6.78;1.55;;;11.00;79.50;;;;;;5011741;28;20052;-71
2022/04/17 01:11:16;;;;;;;6.72;1.60;;;10.90;79.80;;;;;;5011774;28;20393;-71
2022/04/17 01:14:21;;;;;;;8.68;1.88;;;10.70;80.40;;;;;;5011715;28;20049;-71
2022/04/17 01:17:25;;;;;;;10.75;2.05;;;10.60;80.60;;;;;;5011452;28;20068;-72
2022/04/17 01:20:29;;;;;;;4.80;1.52;;;10.60;78.20;;;;;;5021988;28;20048;-65
2022/04/17 01:26:56;;;;;;;5.15;3.03;;;10.70;78.10;;;;;;5011000;28;20057;-65
2022/04/17 01:30:00;;;;;;;7.10;1.70;;;10.70;77.20;;;;;;5011542;28;20052;-64
2022/04/17 01:33:04;;;;;;;8.20;2.10;;;10.60;77.20;;;;;;5011086;28;20053;-63
2022/04/17 01:36:08;;;;;;;8.43;2.17;;;10.50;77.50;;;;;;5010813;28;20796;-63
2022/04/17 01:39:13;;;;;;;8.45;1.63;;;10.50;78.30;;;;;;5011363;28;20496;-64
2022/04/17 01:42:17;;;;;;;6.38;1.77;;;10.40;78.60;;;;;;5010567;28;20052;-65
2022/04/17 01:45:21;;;;;;;9.35;1.70;;;10.20;77.70;;;;;;5010671;28;20048;-64
2022/04/17 01:48:25;;;;;;;12.02;1.88;;;10.20;77.30;;;;;;5010820;28;20065;-64
2022/04/17 01:51:39;;;;;;;10.00;2.30;;;10.10;77.90;;;;;;5011129;28;20045;-64
2022/04/17 01:54:43;;;;;;;6.07;2.03;;;10.10;78.10;;;;;;5011091;28;20072;-64
2022/04/17 01:57:47;;;;;;;6.60;1.92;;;10.10;76.30;;;;;;5010356;28;20060;-64
2022/04/17 02:00:51;;;;;;;7.90;1.55;;;10.10;77.30;;;;;;5010671;28;20048;-65
2022/04/17 02:03:55;;;;;;;6.70;1.70;;;10.00;77.20;;;;;;5011016;28;20393;-64
2022/04/17 02:06:59;;;;;;;4.88;1.77;;;9.90;77.20;;;;;;5010609;28;20061;-64
2022/04/17 02:10:07;;;;;;;4.20;1.80;;;9.90;77.70;;;;;;5010929;28;20042;-64
2022/04/17 02:13:11;;;;;;;6.88;1.83;;;9.80;78.00;;;;;;5011242;28;20481;-65
2022/04/17 02:16:17;;;;;;;5.10;1.98;;;9.70;77.70;;;;;;5010400;28;20050;-64
2022/04/17 02:19:22;;;;;;;6.45;1.80;;;9.70;76.70;;;;;;5010607;28;20037;-64
2022/04/17 02:22:26;;;;;;;5.47;2.17;;;9.80;76.70;;;;;;5015344;28;20042;-64
2022/04/17 02:25:30;;;;;;;7.93;1.90;;;9.70;76.00;;;;;;5014686;28;20038;-63
2022/04/17 02:28:35;;;;;;;5.63;1.80;;;9.60;76.90;;;;;;5014970;28;20041;-63
2022/04/17 02:31:40;;;;;;;8.77;1.92;;;9.60;76.80;;;;;;5014218;28;20504;-64
2022/04/17 02:34:44;;;;;;;5.72;1.98;;;9.50;77.30;;;;;;5014454;28;20481;-64
2022/04/17 02:37:48;;;;;;;7.95;2.45;;;9.50;77.50;;;;;;5014377;28;20030;-64
2022/04/17 02:40:53;;;;;;;5.93;1.80;;;9.40;77.90;;;;;;5014522;28;20046;-65
2022/04/17 02:43:57;;;;;;;17.67;2.55;;;9.40;78.30;;;;;;5014946;28;20525;-63
2022/04/17 02:50:23;;;;;;;;;;;9.40;79.20;;;;;;5014579;28;20037;-63
2022/04/17 02:53:28;;;;;;;9.25;2.33;;;9.30;79.40;;;;;;5013953;28;19920;-64
2022/04/17 02:56:32;;;;;;;4.68;1.90;;;9.30;79.70;;;;;;5013295;28;20042;-64
2022/04/17 02:59:36;;;;;;;9.60;3.00;;;9.20;79.30;;;;;;5014403;28;20042;-64
2022/04/17 03:06:10;;;;;;;9.07;1.85;;;9.20;79.00;;;;;;5007732;28;20046;-64
2022/04/17 03:09:14;;;;;;;6.78;2.60;;;9.10;78.70;;;;;;5013267;28;20485;-63
2022/04/17 03:12:18;;;;;;;5.53;2.35;;;9.10;77.70;;;;;;5013973;28;20370;-63
2022/04/17 03:15:23;;;;;;;10.27;2.63;;;9.10;77.80;;;;;;5013499;28;20038;-63
2022/04/17 03:18:27;;;;;;;3.10;2.10;;;9.00;77.60;;;;;;5013598;28;20048;-63
2022/04/17 03:21:31;;;;;;;4.40;2.28;;;9.10;77.30;;;;;;5013647;28;20366;-64
2022/04/17 03:24:35;;;;;;;5.18;2.50;;;9.00;76.50;;;;;;5023787;28;20038;-64
2022/04/17 03:27:40;;;;;;;7.65;2.20;;;9.00;77.00;;;;;;5013356;28;20041;-65
2022/04/17 03:30:44;;;;;;;4.68;2.22;;;9.00;77.90;;;;;;5013678;28;20034;-64
2022/04/17 03:33:47;;;;;;;9.05;2.33;;;8.90;78.10;;;;;;5012430;28;20041;-64
2022/04/17 03:36:51;;;;;;;4.90;2.05;;;8.80;77.60;;;;;;5013328;28;20583;-64
2022/04/17 03:39:55;;;;;;;4.13;2.72;;;8.70;78.30;;;;;;5013322;28;20446;-64
2022/04/17 03:42:59;;;;;;;4.50;2.47;;;8.70;77.30;;;;;;5013319;28;20485;-63
2022/04/17 03:46:03;;;;;;;4.22;2.00;;;8.70;77.30;;;;;;5013152;28;20382;-65
2022/04/17 03:49:07;;;;;;;7.35;2.38;;;8.70;77.70;;;;;;5013085;28;20034;-63
2022/04/17 03:52:11;;;;;;;7.93;2.75;;;8.60;78.40;;;;;;5013149;28;20042;-64
2022/04/17 03:55:16;;;;;;;5.53;2.45;;;8.50;77.30;;;;;;5013024;28;20042;-64
2022/04/17 03:58:20;;;;;;;4.43;2.95;;;8.60;76.70;;;;;;5012562;28;20037;-64
2022/04/17 04:01:26;;;;;;;9.45;3.38;;;8.60;77.10;;;;;;5012735;28;20045;-64
2022/04/17 04:04:30;;;;;;;8.13;2.95;;;8.60;76.70;;;;;;5012560;28;20046;-64
2022/04/17 04:07:35;;;;;;;9.75;3.35;;;8.60;77.80;;;;;;5012310;28;20042;-63
2022/04/17 04:10:39;;;;;;;9.05;3.35;;;8.50;76.70;;;;;;5012612;28;20382;-64
2022/04/17 04:13:44;;;;;;;5.47;3.00;;;8.40;77.10;;;;;;5012540;28;20366;-64
2022/04/17 04:16:48;;;;;;;6.78;3.55;;;8.30;76.80;;;;;;5012058;28;20046;-63
2022/04/17 04:19:52;;;;;;;8.57;2.97;;;8.30;77.40;;;;;;5012582;28;20042;-64
2022/04/17 04:22:57;;;;;;;15.18;3.38;;;8.30;77.20;;;;;;5012488;28;20037;-64
2022/04/17 04:26:02;;;;;;;5.47;3.00;;;8.30;78.00;;;;;;5012336;28;20122;-64
2022/04/17 04:29:06;;;;;;;7.82;2.90;;;8.30;77.00;;;;;;5012440;28;20366;-64
2022/04/17 04:32:12;;;;;;;4.13;2.90;;;8.20;78.20;;;;;;5011970;28;20034;-64
2022/04/17 04:35:15;;;;;;;5.47;2.75;;;8.20;79.20;;;;;;5012284;28;20496;-63
2022/04/17 04:38:19;;;;;;;5.55;3.10;;;8.30;79.00;;;;;;5011639;28;20038;-64
2022/04/17 04:41:23;;;;;;;4.43;2.90;;;8.20;77.80;;;;;;5011960;28;20042;-64
2022/04/17 04:44:27;;;;;;;3.85;2.80;;;8.30;78.60;;;;;;5011907;28;20124;-63
2022/04/17 04:47:31;;;;;;;6.57;2.70;;;8.40;79.10;;;;;;5011011;28;20041;-63
2022/04/17 04:50:36;;;;;;;7.90;2.80;;;8.40;79.10;;;;;;5011715;28;20050;-63
2022/04/17 04:53:40;;;;;;;6.88;3.40;;;8.50;79.60;;;;;;5011987;28;20042;-64
2022/04/17 04:56:44;;;;;;;7.75;3.03;;;8.50;79.20;;;;;;5011396;28;20375;-63
2022/04/17 04:59:48;;;;;;;4.18;2.42;;;8.50;78.90;;;;;;5012285;28;20041;-63
2022/04/17 05:02:52;;;;;;;5.68;2.95;;;8.50;77.50;;;;;;5011718;28;20361;-63
2022/04/17 05:05:56;;;;;;;7.57;2.78;;;8.60;77.10;;;;;;5011868;28;20034;-63
2022/04/17 05:09:00;;;;;;;6.15;3.08;;;8.70;76.40;;;;;;5011571;28;20481;-63
2022/04/17 05:12:05;;;;;;;9.07;3.40;;;8.70;76.50;;;;;;5012173;28;20038;-63
2022/04/17 05:15:11;;;;;;;8.15;3.30;;;8.80;75.90;;;;;;5011501;28;20373;-63
2022/04/17 05:18:15;;;;;;;6.40;3.15;;;9.00;75.60;;;;;;5012815;28;20493;-63
2022/04/17 05:21:21;;;;;;;8.70;3.10;;;9.00;74.60;;;;;;5011737;28;20042;-64
2022/04/17 05:24:26;;;;;;;6.97;3.28;;;9.00;74.60;;;;;;5011537;28;20041;-63
2022/04/17 05:27:31;;;;;;;9.38;3.65;;;9.20;75.30;;;;;;5011689;28;20037;-63
2022/04/17 05:30:35;;;;;;;6.55;3.97;;;9.30;74.70;;;;;;5011249;28;20037;-63
2022/04/17 05:33:39;;;;;;;6.40;3.85;;;9.20;73.70;;;;;;5011439;28;20046;-63
2022/04/17 05:36:43;;;;;;;5.50;3.13;;;9.30;73.70;;;;;;5011885;28;20500;-63
2022/04/17 05:39:47;;;;;;;7.07;3.03;;;9.00;73.80;;;;;;5011516;28;20034;-63
2022/04/17 05:42:50;;;;;;;4.60;2.92;;;9.40;74.10;;;;;;5011770;28;20697;-63
2022/04/17 05:45:57;;;;;;;6.28;3.22;;;9.80;73.90;;;;;;5011594;28;20038;-64
2022/04/17 05:49:06;;;;;;;4.70;3.20;;;10.20;71.60;;;;;;5011141;28;20042;-64
2022/04/17 05:52:12;;;;;;;4.18;2.55;;;12.40;69.00;;;;;;5011246;28;20053;-64
2022/04/17 05:55:16;;;;;;;9.52;2.63;;;15.10;66.60;;;;;;5010908;28;20049;-63
2022/04/17 05:58:20;;;;;;;4.53;2.38;;;14.90;63.60;;;;;;5011101;28;20420;-63
2022/04/17 06:01:24;;;;;;;6.43;3.53;;;14.20;65.10;;;;;;5012204;28;20068;-64
2022/04/17 06:04:28;;;;;;;6.22;2.25;;;12.60;68.60;;;;;;5011385;28;20048;-63
2022/04/17 06:07:33;;;;;;;3.25;2.75;;;13.90;66.70;;;;;;5011008;28;20056;-64
2022/04/17 06:10:37;;;;;;;7.10;3.00;;;12.00;65.80;;;;;;5010117;28;20042;-63
2022/04/17 06:13:41;;;;;;;6.65;2.67;;;10.70;70.20;;;;;;5010794;28;20045;-63
2022/04/17 06:16:47;;;;;;;5.05;2.97;;;10.80;70.90;;;;;;5010793;28;20041;-63
2022/04/17 06:19:51;;;;;;;4.93;3.00;;;10.70;71.20;;;;;;5011011;28;20056;-63
2022/04/17 06:22:55;;;;;;;10.23;3.25;;;10.70;71.40;;;;;;5010930;28;20389;-63
2022/04/17 06:26:00;;;;;;;7.72;3.35;;;11.00;71.40;;;;;;5011237;28;20049;-63
2022/04/17 06:29:08;;;;;;;7.75;3.08;;;11.20;70.30;;;;;;5010717;28;20053;-64
2022/04/17 06:32:12;;;;;;;8.15;3.15;;;11.10;70.70;;;;;;5010838;28;20041;-65
2022/04/17 06:35:17;;;;;;;7.30;2.70;;;11.50;70.30;;;;;;5011866;28;20041;-64
2022/04/17 06:38:20;;;;;;;6.40;3.05;;;10.80;69.70;;;;;;5010598;28;20045;-64
2022/04/17 06:41:24;;;;;;;4.80;2.60;;;11.00;70.30;;;;;;5010551;28;20041;-64
2022/04/17 06:44:28;;;;;;;7.82;3.10;;;11.10;70.40;;;;;;5010832;28;20061;-64
2022/04/17 06:47:32;;;;;;;6.35;3.05;;;11.00;69.10;;;;;;5010659;28;20065;-64
2022/04/17 06:50:36;;;;;;;11.23;4.07;;;10.70;69.40;;;;;;5010760;28;20052;-64
2022/04/17 06:53:40;;;;;;;5.47;2.95;;;10.50;70.40;;;;;;5010255;28;20492;-63
2022/04/17 06:56:45;;;;;;;5.25;2.78;;;10.30;70.90;;;;;;5009874;28;20052;-65
2022/04/17 06:59:49;;;;;;;8.07;4.68;;;10.70;70.30;;;;;;5010417;28;20045;-63
2022/04/17 07:02:53;;;;;;;7.07;3.00;;;11.00;69.00;;;;;;5009678;28;20389;-64
2022/04/17 07:05:57;;;;;;;6.15;3.53;;;10.50;70.50;;;;;;5010877;28;20057;-64
2022/04/17 07:09:01;;;;;;;5.68;2.95;;;10.60;70.00;;;;;;5014015;28;20388;-64
2022/04/17 07:12:05;;;;;;;5.45;3.15;;;10.90;69.70;;;;;;5013791;28;20500;-63
2022/04/17 07:15:11;;;;;;;5.53;3.05;;;9.90;71.40;;;;;;5013632;28;20053;-64
2022/04/17 07:18:15;;;;;;;6.63;2.60;;;10.20;72.30;;;;;;5012930;28;20398;-64
2022/04/17 07:21:19;;;;;;;4.63;2.65;;;10.70;71.70;;;;;;5013331;28;20511;-64
2022/04/17 07:24:24;;;;;;;5.18;2.92;;;10.20;73.90;;;;;;5014965;28;20044;-63
2022/04/17 07:27:38;;;;;;;6.80;3.03;;;9.70;71.60;;;;;;5013109;28;20044;-64
2022/04/17 07:30:41;;;;;;;3.97;2.38;;;10.30;71.60;;;;;;5013266;28;20034;-64
2022/04/17 07:33:45;;;;;;;4.70;2.83;;;10.30;70.90;;;;;;5013648;28;20045;-64
2022/04/17 07:36:54;;;;;;;5.93;2.35;;;10.30;72.00;;;;;;5013067;28;20041;-64
2022/04/17 07:39:58;;;;;;;4.53;2.45;;;10.80;69.90;;;;;;5013774;28;20045;-64
2022/04/17 07:43:06;;;;;;;6.45;2.45;;;10.80;70.20;;;;;;5012931;28;20393;-64
2022/04/17 07:46:10;;;;;;;5.53;2.30;;;11.00;70.00;;;;;;5013401;28;20033;-64
2022/04/17 07:49:15;;;;;;;7.63;2.90;;;11.50;71.00;;;;;;5013277;28;20048;-64
2022/04/17 07:52:19;;;;;;;5.13;2.20;;;11.60;70.40;;;;;;5012831;28;20045;-65
2022/04/17 07:55:23;;;;;;;4.65;2.50;;;10.80;71.20;;;;;;5012937;28;20037;-64
2022/04/17 07:58:37;;;;;;;4.20;2.17;;;10.00;72.60;;;;;;5012913;28;20045;-63
2022/04/17 08:01:43;;;;;;;6.38;3.00;;;10.40;73.80;;;;;;5012674;28;20044;-64
2022/04/17 08:04:47;;;;;;;6.90;2.75;;;11.10;70.70;;;;;;5012169;28;20045;-63
2022/04/17 08:07:52;;;;;;;4.82;2.92;;;11.20;70.90;;;;;;5012467;28;20057;-63
2022/04/17 08:10:56;;;;;;;5.07;3.05;;;11.30;70.00;;;;;;5012846;28;20053;-63
2022/04/17 08:14:00;;;;;;;7.78;2.78;;;11.60;69.60;;;;;;5012647;28;20503;-64
2022/04/17 08:17:04;;;;;;;5.65;2.75;;;12.00;69.10;;;;;;5012494;28;20061;-64
2022/04/17 08:20:09;;;;;;;5.10;3.00;;;12.10;70.10;;;;;;5012562;28;20045;-64
2022/04/17 08:23:14;;;;;;;6.85;3.13;;;12.30;69.30;;;;;;5012588;28;20048;-63
2022/04/17 08:26:18;;;;;;;9.57;2.83;;;12.00;67.20;;;;;;5008756;28;20037;-64
2022/04/17 08:29:22;;;;;;;6.10;2.63;;;11.50;67.30;;;;;;5011731;28;20052;-63
2022/04/17 08:32:26;;;;;;;5.90;2.90;;;11.10;69.20;;;;;;5011138;28;20049;-64
2022/04/17 08:35:30;;;;;;;5.72;2.40;;;11.70;70.10;;;;;;5011458;28;20049;-64
2022/04/17 08:38:34;;;;;;;4.15;2.40;;;11.30;70.10;;;;;;5011422;28;20557;-64
2022/04/17 08:41:41;;;;;;;9.48;2.83;;;10.80;71.30;;;;;;5011220;28;20074;-64
2022/04/17 08:44:45;;;;;;;9.05;2.88;;;11.00;72.00;;;;;;5011343;28;20049;-64
2022/04/17 08:47:50;;;;;;;5.93;2.63;;;11.40;71.80;;;;;;5010950;28;20046;-64
2022/04/17 08:50:55;;;;;;;7.47;2.70;;;11.70;70.40;;;;;;5011493;28;20261;-63
2022/04/17 08:54:01;;;;;;;8.05;3.00;;;11.20;69.90;;;;;;5010527;28;20045;-64
2022/04/17 08:57:05;;;;;;;5.63;3.20;;;11.50;71.50;;;;;;5010806;28;20037;-64
2022/04/17 09:00:13;;;;;;;6.47;3.67;;;11.60;69.20;;;;;;5011133;28;20207;-64
2022/04/17 09:03:17;;;;;;;5.38;2.78;;;11.60;70.50;;;;;;5011059;28;20049;-64
2022/04/17 09:06:21;;;;;;;6.70;2.75;;;11.90;71.50;;;;;;5011004;28;20057;-64
2022/04/17 09:09:25;;;;;;;5.07;3.53;;;12.10;70.70;;;;;;5011252;28;20049;-64
2022/04/17 09:12:29;;;;;;;5.22;2.72;;;12.20;71.30;;;;;;5010585;28;20033;-64
2022/04/17 09:15:35;;;;;;;5.28;2.88;;;12.40;71.10;;;;;;5010384;28;20056;-64
2022/04/17 09:18:40;;;;;;;7.60;2.58;;;12.70;70.00;;;;;;5010679;28;20041;-64
2022/04/17 09:21:44;;;;;;;5.50;3.15;;;12.80;70.60;;;;;;5010470;28;20408;-64
2022/04/17 09:24:48;;;;;;;6.07;2.40;;;13.00;69.70;;;;;;5010717;28;20069;-63
2022/04/17 09:28:01;;;;;;;5.97;2.78;;;13.30;69.40;;;;;;5010028;28;20053;-64
2022/04/17 09:31:12;;;;;;;9.38;3.08;;;13.00;66.70;;;;;;5008983;28;20041;-64
2022/04/17 09:34:16;;;;;;;7.18;2.97;;;12.00;68.90;;;;;;5010822;28;20048;-64
2022/04/17 09:37:24;;;;;;;7.88;2.65;;;12.30;72.10;;;;;;5009533;28;20033;-63
2022/04/17 09:40:31;;;;;;;5.47;2.95;;;12.50;69.80;;;;;;5010638;28;20045;-64
2022/04/17 09:43:36;;;;;;;8.88;2.60;;;12.80;69.70;;;;;;5009612;28;20048;-64
2022/04/17 09:46:56;;;;;;;6.85;2.75;;;12.90;69.50;;;;;;5010122;28;20963;-65
2022/04/17 09:50:04;;;;;;;6.95;3.03;;;13.40;69.30;;;;;;5010908;28;20377;-64
2022/04/17 09:53:09;;;;;;;5.63;2.70;;;13.90;68.70;;;;;;5010456;28;20052;-71
2022/04/17 09:56:13;;;;;;;10.68;2.58;;;14.00;66.40;;;;;;5010156;28;20048;-71
2022/04/17 09:59:22;;;;;;;8.60;2.47;;;14.90;67.30;;;;;;5011167;28;20049;-71
2022/04/17 10:02:26;;;;;;;9.73;2.75;;;15.70;66.50;;;;;;5011225;28;20381;-64
2022/04/17 10:05:32;;;;;;;4.00;2.00;;;16.00;64.70;;;;;;5011261;28;20045;-71
2022/04/17 10:08:37;;;;;;;14.48;3.03;;;16.60;64.60;;;;;;5010625;28;20048;-71
2022/04/17 10:11:41;;;;;;;4.63;2.10;;;17.60;59.00;;;;;;5010880;28;20049;-71
2022/04/17 10:14:49;;;;;;;5.65;2.45;;;18.10;60.30;;;;;;5020374;28;20045;-64
2022/04/17 10:17:57;;;;;;;5.70;2.40;;;19.60;58.20;;;;;;5011054;28;20041;-64
2022/04/17 10:21:05;;;;;;;5.05;2.00;;;21.40;54.60;;;;;;5010448;28;20476;-65
2022/04/17 10:24:15;;;;;;;4.18;2.17;;;21.00;54.70;;;;;;5010742;28;20535;-65
2022/04/17 10:27:40;;;;;;;4.20;1.98;;;24.70;51.20;;;;;;5010307;28;20053;-69
2022/04/17 10:30:58;;;;;;;6.28;1.80;;;26.50;49.90;;;;;;5010380;28;20516;-70
2022/04/17 10:34:06;;;;;;;4.05;1.83;;;25.70;48.80;;;;;;5010289;28;20385;-64
2022/04/17 10:37:21;;;;;;;5.18;2.42;;;26.30;48.90;;;;;;5010382;28;20048;-70
2022/04/17 10:40:25;;;;;;;3.63;1.98;;;28.30;47.50;;;;;;5009999;28;20409;-70
2022/04/17 10:43:50;;;;;;;4.35;1.60;;;25.50;49.40;;;;;;5014690;28;20053;-72
2022/04/17 10:46:56;;;;;;;3.47;1.73;;;28.10;47.80;;;;;;5014989;28;20040;-70
2022/04/17 10:50:07;;;;;;;4.30;2.00;;;31.40;46.60;;;;;;5014595;28;20060;-71
2022/04/17 10:53:27;;;;;;;4.32;1.50;;;33.20;44.80;;;;;;5013425;28;20061;-70
2022/04/17 10:56:34;;;;;;;4.68;1.77;;;28.30;44.50;;;;;;5014048;28;20056;-65
2022/04/17 10:59:40;;;;;;;7.32;1.60;;;29.60;44.80;;;;;;5014400;28;20496;-71
2022/04/17 11:02:44;;;;;;;7.47;2.17;;;26.80;46.20;;;;;;5013456;28;20504;-64
2022/04/17 11:09:19;;;;;;;3.15;2.00;;;25.30;48.70;;;;;;5013637;28;20045;-65
2022/04/17 11:12:29;;;;;;;3.22;1.80;;;23.70;47.50;;;;;;5013016;28;20711;-66
2022/04/17 11:15:38;;;;;;;6.38;3.85;;;25.10;49.40;;;;;;5012905;28;20057;-66
2022/04/17 11:18:43;;;;;;;17.40;2.33;;;27.50;47.10;;;;;;5013595;28;20048;-63
2022/04/17 11:21:51;;;;;;;4.82;1.80;;;29.00;45.40;;;;;;5013714;28;20048;-72
2022/04/17 11:24:55;;;;;;;7.05;1.90;;;28.20;47.00;;;;;;5013726;28;20045;-70
2022/04/17 11:28:02;;;;;;;3.90;1.70;;;30.10;45.70;;;;;;5013153;28;20057;-70
2022/04/17 11:31:07;;;;;;;4.05;1.67;;;31.50;44.40;;;;;;5001180;28;20053;-72
2022/04/17 11:34:11;;;;;;;3.47;1.88;;;32.30;43.60;;;;;;5013396;28;20049;-72
2022/04/17 11:37:25;;;;;;;5.32;2.00;;;31.40;43.40;;;;;;5012955;28;20041;-71
2022/04/17 11:40:33;;;;;;;4.40;1.63;;;31.60;43.80;;;;;;5013013;28;20041;-72
2022/04/17 11:43:37;;;;;;;3.83;2.05;;;30.30;43.50;;;;;;5013654;28;20044;-71
2022/04/17 11:46:42;;;;;;;6.28;2.92;;;29.70;44.20;;;;;;5013079;28;20044;-72
2022/04/17 11:49:49;;;;;;;4.90;1.80;;;28.50;46.20;;;;;;5012830;28;20045;-71
2022/04/17 11:52:58;;;;;;;5.20;2.05;;;26.40;45.30;;;;;;5012244;28;20040;-72
2022/04/17 11:56:02;;;;;;;5.88;2.20;;;25.90;46.10;;;;;;5012449;28;20040;-65
2022/04/17 11:59:07;;;;;;;9.93;2.67;;;25.70;46.80;;;;;;5012779;28;20041;-66
2022/04/17 12:02:16;;;;;;;4.93;1.90;;;28.10;46.50;;;;;;5012592;28;20049;-66
2022/04/17 12:05:20;;;;;;;4.45;1.80;;;28.70;44.40;;;;;;5012209;28;20061;-66
2022/04/17 12:08:35;;;;;;;3.75;2.00;;;26.90;45.30;;;;;;5011671;28;20053;-65
2022/04/17 12:11:41;;;;;;;8.57;2.20;;;25.90;46.00;;;;;;5012191;28;20052;-64
2022/04/17 12:14:53;;;;;;;5.38;2.10;;;23.70;48.00;;;;;;5010884;28;20409;-66
2022/04/17 12:18:00;;;;;;;6.07;2.35;;;23.10;49.40;;;;;;5011608;28;20412;-65
2022/04/17 12:21:06;;;;;;;7.40;2.53;;;21.40;50.10;;;;;;5011927;28;20405;-65
2022/04/17 12:24:11;;;;;;;5.07;2.00;;;23.20;50.30;;;;;;5011498;28;20053;-65
2022/04/17 12:27:19;;;;;;;4.70;2.30;;;23.50;49.40;;;;;;5011532;28;20488;-66
2022/04/17 12:30:27;;;;;;;3.58;1.98;;;24.70;47.70;;;;;;5011616;28;20092;-66
2022/04/17 12:33:31;;;;;;;4.30;2.20;;;24.30;47.60;;;;;;5011551;28;20057;-66
2022/04/17 12:36:37;;;;;;;7.07;2.10;;;24.60;45.90;;;;;;5011819;28;20045;-72
2022/04/17 12:39:41;;;;;;;5.75;2.10;;;25.10;47.60;;;;;;5012061;28;20044;-73
2022/04/17 12:42:46;;;;;;;9.35;2.38;;;22.70;48.20;;;;;;5012681;28;20053;-72
2022/04/17 12:46:04;;;;;;;6.10;1.95;;;22.30;48.80;;;;;;5011912;28;20397;-72
2022/04/17 12:49:14;;;;;;;4.35;2.20;;;21.50;49.70;;;;;;5012073;28;20393;-72
2022/04/17 12:52:21;;;;;;;10.20;2.30;;;22.00;50.50;;;;;;5011610;28;20117;-71
2022/04/17 12:55:34;;;;;;;6.40;2.30;;;22.90;48.00;;;;;;5012695;28;20421;-72
2022/04/17 12:59:07;;;;;;;2.72;1.80;;;23.60;47.50;;;;;;5011927;28;20049;-71
2022/04/17 13:02:17;;;;;;;5.57;2.08;;;22.50;48.60;;;;;;5011485;28;20603;-71
2022/04/17 13:05:23;;;;;;;5.72;1.90;;;21.60;48.80;;;;;;5012115;28;20042;-65
2022/04/17 13:08:27;;;;;;;5.57;2.13;;;21.60;47.40;;;;;;5011624;28;20041;-72
2022/04/17 13:11:39;;;;;;;4.13;2.00;;;22.20;48.00;;;;;;5011336;28;20131;-70
2022/04/17 13:14:56;;;;;;;7.47;2.17;;;24.30;47.90;;;;;;5010361;28;20068;-70
2022/04/17 13:18:00;;;;;;;5.57;2.13;;;25.70;45.70;;;;;;5010634;28;20041;-71
2022/04/17 13:21:04;;;;;;;4.50;1.83;;;25.90;45.90;;;;;;5011501;28;20037;-65
2022/04/17 13:24:13;;;;;;;4.78;2.25;;;25.50;45.00;;;;;;5011407;28;20045;-65
2022/04/17 13:27:19;;;;;;;3.60;1.83;;;25.10;46.80;;;;;;5010464;28;20049;-65
2022/04/17 13:30:23;;;;;;;4.95;2.10;;;24.30;47.50;;;;;;5011445;28;20049;-64
2022/04/17 13:33:26;;;;;;;6.35;2.35;;;22.20;47.40;;;;;;5011885;28;20508;-71
2022/04/17 13:36:32;;;;;;;6.00;1.77;;;22.30;47.30;;;;;;5010340;28;20062;-64
2022/04/17 13:39:36;;;;;;;5.72;3.47;;;19.20;48.50;;;;;;5011265;28;20049;-64
2022/04/17 13:42:40;;;;;;;8.38;2.20;;;19.60;53.00;;;;;;5010785;28;20048;-64
2022/04/17 13:45:43;;;;;;;9.75;3.17;;;20.90;50.00;;;;;;5011068;28;20045;-71
2022/04/17 13:48:47;;;;;;;3.90;2.05;;;21.60;47.90;;;;;;5010328;28;20064;-64
2022/04/17 13:51:53;;;;;;;3.28;1.73;;;21.60;48.70;;;;;;5010860;28;20072;-65
2022/04/17 13:54:58;;;;;;;5.97;1.73;;;21.60;46.80;;;;;;5011161;28;20105;-63
2022/04/17 13:58:02;;;;;;;3.83;1.60;;;21.30;48.00;;;;;;5010891;28;20068;-63
2022/04/17 14:01:07;;;;;;;6.80;1.50;;;19.50;49.10;;;;;;5010854;28;20265;-72
2022/04/17 14:04:11;;;;;;;7.72;2.28;;;20.00;48.80;;;;;;5010976;28;20614;-70
2022/04/17 14:07:14;;;;;;;3.92;1.70;;;19.90;47.50;;;;;;5009863;28;20049;-63
2022/04/17 14:10:18;;;;;;;4.78;1.65;;;20.00;48.70;;;;;;5010410;28;20056;-71
2022/04/17 14:13:22;;;;;;;5.47;1.52;;;20.20;47.60;;;;;;5010000;28;20049;-71
2022/04/17 14:16:26;;;;;;;3.80;2.55;;;19.80;48.50;;;;;;5011369;28;20045;-71
2022/04/17 14:19:30;;;;;;;10.40;2.00;;;19.80;49.20;;;;;;5014652;28;20048;-70
2022/04/17 14:22:34;;;;;;;7.03;2.00;;;20.00;48.50;;;;;;5014579;28;20044;-70
2022/04/17 14:25:38;;;;;;;7.65;1.75;;;19.90;49.00;;;;;;5014292;28;20051;-69
2022/04/17 14:28:42;;;;;;;3.05;1.80;;;19.70;48.30;;;;;;5012082;28;20068;-72
2022/04/17 14:31:46;;;;;;;7.07;3.00;;;18.90;49.70;;;;;;5013668;28;20045;-69
2022/04/17 14:34:50;;;;;;;4.68;2.20;;;19.10;49.10;;;;;;5013937;28;20491;-70
2022/04/17 14:37:54;;;;;;;3.65;1.67;;;19.20;47.70;;;;;;5012563;28;20049;-70
2022/04/17 14:40:58;;;;;;;4.80;2.13;;;19.10;46.70;;;;;;5014080;28;20069;-72
2022/04/17 14:44:02;;;;;;;4.15;1.85;;;19.10;47.20;;;;;;5013670;28;20053;-73
2022/04/17 14:47:07;;;;;;;4.97;1.92;;;18.90;48.70;;;;;;5013495;28;20049;-72
2022/04/17 14:50:11;;;;;;;3.88;1.50;;;18.70;47.90;;;;;;5013860;28;20076;-72
2022/04/17 14:53:16;;;;;;;2.40;1.67;;;18.00;48.60;;;;;;5013192;28;20041;-73
2022/04/17 14:56:21;;;;;;;5.05;1.65;;;18.10;49.40;;;;;;5012891;28;20053;-72
2022/04/17 14:59:25;;;;;;;5.45;1.95;;;18.30;47.10;;;;;;5014022;28;20503;-72
2022/04/17 15:02:29;;;;;;;5.35;2.00;;;17.90;48.30;;;;;;5014155;28;20519;-72
2022/04/17 15:05:33;;;;;;;5.80;1.70;;;17.70;49.80;;;;;;5013948;28;20053;-70
2022/04/17 15:08:37;;;;;;;3.22;1.80;;;17.80;48.70;;;;;;5014027;28;20413;-72
2022/04/17 15:11:42;;;;;;;4.13;1.75;;;17.60;48.50;;;;;;5013593;28;20041;-72
2022/04/17 15:14:46;;;;;;;6.60;1.80;;;17.40;48.60;;;;;;5012372;28;20036;-72
2022/04/17 15:17:51;;;;;;;2.85;1.70;;;17.50;48.60;;;;;;5013058;28;20045;-72
2022/04/17 15:20:55;;;;;;;4.28;1.60;;;17.70;48.80;;;;;;5012556;28;20044;-72
2022/04/17 15:23:59;;;;;;;4.63;2.22;;;17.70;49.00;;;;;;5013442;28;20048;-72
2022/04/17 15:27:03;;;;;;;4.70;1.90;;;17.70;48.20;;;;;;5012347;28;20500;-71
2022/04/17 15:30:07;;;;;;;3.38;2.05;;;17.40;49.80;;;;;;5013287;28;20044;-72
2022/04/17 15:33:12;;;;;;;10.65;1.92;;;16.80;48.80;;;;;;5013772;28;20048;-72
2022/04/17 15:36:17;;;;;;;5.82;2.00;;;16.60;47.60;;;;;;5013133;28;20040;-72
2022/04/17 15:39:21;;;;;;;3.38;1.95;;;16.50;48.50;;;;;;5013164;28;20061;-71
2022/04/17 15:42:25;;;;;;;4.50;1.75;;;16.10;50.30;;;;;;5013161;28;20052;-72
2022/04/17 15:48:51;;;;;;;;;;;15.10;51.20;;;;;;5013545;28;20045;-71
2022/04/17 15:51:55;;;;;;;7.30;2.00;;;15.40;50.30;;;;;;5012683;28;20284;-71
2022/04/17 15:55:00;;;;;;;5.85;2.00;;;15.60;51.00;;;;;;5012584;28;20041;-72
2022/04/17 15:58:05;;;;;;;4.38;1.92;;;15.50;48.60;;;;;;5012147;28;20056;-72
2022/04/17 16:01:10;;;;;;;6.15;2.15;;;15.30;49.10;;;;;;5012653;28;20049;-71
2022/04/17 16:04:16;;;;;;;6.03;1.92;;;15.20;50.70;;;;;;5012548;28;20049;-72
2022/04/17 16:07:20;;;;;;;5.38;2.22;;;15.30;50.00;;;;;;5012238;28;20053;-73
2022/04/17 16:10:24;;;;;;;4.50;2.25;;;15.20;50.80;;;;;;5012416;28;20045;-71
2022/04/17 16:13:28;;;;;;;4.82;2.17;;;15.20;50.50;;;;;;5012101;28;20057;-70
2022/04/17 16:16:33;;;;;;;3.80;1.85;;;15.20;51.00;;;;;;5012310;28;20060;-71
2022/04/17 16:19:36;;;;;;;6.30;2.28;;;14.90;49.90;;;;;;5012452;28;20472;-72
2022/04/17 16:22:40;;;;;;;3.10;1.63;;;14.20;50.40;;;;;;5012315;28;20038;-72